Time;durP1;ratioP1;P1;durP2;ratioP2;P2;SDS_P1;SDS_P2;PMS_P1;PMS_P2;Temp;Humidity;BMP_temperature;BMP_pressure;BME280_temperature;BME280_humidity;BME280_pressure;Samples;Min_cycle;Max_cycle;Signal;HPM_P1;HPM_P2
2023/04/09 00:02:06;;;;;;;;;;;9.30;99.90;;;;;;5092138;28;19931;-89
2023/04/09 00:04:31;;;;;;;;;;;8.30;99.90;;;;;;5091160;28;20333;-89
2023/04/09 00:06:57;;;;;;;;;;;8.20;99.90;;;;;;5108844;27;20006;-88
2023/04/09 00:09:25;;;;;;;;;;;8.10;99.90;;;;;;5086361;28;20016;-88
2023/04/09 00:11:51;;;;;;;;;;;7.10;99.90;;;;;;5060370;28;19932;-89
2023/04/09 00:14:19;;;;;;;;;;;8.10;99.90;;;;;;5073228;28;19924;-88
2023/04/09 00:16:48;;;;;;;;;;;8.10;99.90;;;;;;5091594;28;19924;-88
2023/04/09 00:19:16;;;;;;;;;;;8.10;99.90;;;;;;5104682;28;19928;-90
2023/04/09 00:21:52;;;;;;;;;;;8.30;99.90;;;;;;5071477;28;19976;-89
2023/04/09 00:24:17;;;;;;;;;;;8.20;99.90;;;;;;5073642;28;20012;-90
2023/04/09 00:26:45;;;;;;;;;;;8.50;99.90;;;;;;5075889;28;19985;-89
2023/04/09 00:29:20;;;;;;;;;;;8.70;99.90;;;;;;5091871;28;20257;-88
2023/04/09 00:31:46;;;;;;;;;;;8.60;99.90;;;;;;5076779;28;19924;-88
2023/04/09 00:34:22;;;;;;;;;;;;;;;;;;;;;
2023/04/09 00:36:50;;;;;;;;;;;7.40;99.90;;;;;;5091863;28;19946;-87
2023/04/09 00:39:26;;;;;;;;;;;8.20;99.90;;;;;;5102834;28;19924;-88
2023/04/09 00:42:03;;;;;;;;;;;8.20;99.90;;;;;;5121265;27;19924;-88
2023/04/09 00:44:33;;;;;;;;;;;8.30;99.90;;;;;;5073238;28;20272;-88
2023/04/09 00:47:01;;;;;;;;;;;10.10;99.90;;;;;;5077011;28;19934;-88
2023/04/09 00:49:32;;;;;;;;;;;8.00;99.90;;;;;;5090195;28;19993;-88
2023/04/09 00:52:06;;;;;;;;;;;6.80;99.90;;;;;;5097519;28;19924;-88
2023/04/09 00:54:41;;;;;;;;;;;8.10;99.90;;;;;;5081100;28;19938;-89
2023/04/09 00:57:07;;;;;;;;;;;8.30;99.90;;;;;;5073980;28;20424;-87
2023/04/09 00:59:33;;;;;;;;;;;8.00;99.90;;;;;;5062379;28;19990;-89
2023/04/09 01:02:01;;;;;;;;;;;8.20;99.90;;;;;;5091208;28;19928;-89
2023/04/09 01:04:29;;;;;;;;;;;8.50;99.90;;;;;;5090796;28;20322;-88
2023/04/09 01:06:56;;;;;;;;;;;6.90;99.90;;;;;;5105191;28;19960;-89
2023/04/09 01:09:25;;;;;;;;;;;8.40;99.90;;;;;;5086407;28;19954;-88
2023/04/09 01:11:58;;;;;;;;;;;8.40;99.90;;;;;;5069032;28;19928;-88
2023/04/09 01:14:55;;;;;;;;;;;8.10;99.90;;;;;;5068250;28;19985;-88
2023/04/09 01:17:25;;;;;;;;;;;8.00;99.90;;;;;;5098957;28;19977;-88
2023/04/09 01:20:07;;;;;;;;;;;7.30;99.90;;;;;;5084625;28;19935;-87
2023/04/09 01:22:55;;;;;;;;;;;7.90;99.90;;;;;;5087316;28;20000;-88
2023/04/09 01:25:31;;;;;;;;;;;10.20;99.90;;;;;;5081166;28;19935;-88
2023/04/09 01:28:06;;;;;;;;;;;7.90;99.90;;;;;;5069832;28;19924;-88
2023/04/09 01:30:43;;;;;;;;;;;7.90;99.90;;;;;;5096033;28;19992;-88
2023/04/09 01:33:10;;;;;;;;;;;7.90;99.90;;;;;;5078074;28;19932;-88
2023/04/09 01:35:38;;;;;;;;;;;8.10;99.90;;;;;;5071721;28;20382;-89
2023/04/09 01:38:04;;;;;;;;;;;7.90;99.90;;;;;;5073992;28;20210;-88
2023/04/09 01:40:35;;;;;;;;;;;8.10;99.90;;;;;;5099391;28;19924;-89
2023/04/09 01:43:03;;;;;;;;;;;7.90;99.90;;;;;;5076740;28;19929;-88
2023/04/09 01:45:40;;;;;;;;;;;8.10;99.90;;;;;;5089857;28;19947;-87
2023/04/09 01:48:08;;;;;;;;;;;6.40;99.90;;;;;;5071307;28;19985;-88
2023/04/09 01:50:34;;;;;;;;;;;7.90;99.90;;;;;;5106700;27;19931;-88
2023/04/09 01:53:08;;;;;;;;;;;7.90;99.90;;;;;;5076988;28;19924;-87
2023/04/09 01:55:36;;;;;;;;;;;7.90;99.90;;;;;;5076427;28;20379;-89
2023/04/09 01:58:04;;;;;;;;;;;8.30;99.90;;;;;;5077130;28;20007;-88
2023/04/09 02:00:37;;;;;;;;;;;5.90;99.90;;;;;;5077633;28;19931;-88
2023/04/09 02:03:31;;;;;;;;;;;8.10;99.90;;;;;;5121123;27;19931;-87
2023/04/09 02:08:50;;;;;;;;;;;7.90;99.90;;;;;;5089396;28;19928;-87
2023/04/09 02:11:16;;;;;;;;;;;7.90;99.90;;;;;;5093069;28;19928;-88
2023/04/09 02:13:48;;;;;;;;;;;8.10;99.90;;;;;;5074808;28;20003;-88
2023/04/09 02:16:19;;;;;;;;;;;7.90;99.90;;;;;;5099652;28;19932;-88
2023/04/09 02:18:51;;;;;;;;;;;6.00;99.90;;;;;;5076589;28;20014;-88
2023/04/09 02:21:23;;;;;;;;;;;7.90;99.90;;;;;;5073332;28;19928;-88
2023/04/09 02:23:51;;;;;;;;;;;7.90;99.90;;;;;;5103477;28;19924;-88
2023/04/09 02:26:20;;;;;;;;;;;8.60;99.90;;;;;;5069096;28;19970;-87
2023/04/09 02:28:58;;;;;;;;;;;6.20;99.90;;;;;;5080530;28;19989;-88
2023/04/09 02:31:23;;;;;;;;;;;8.00;99.90;;;;;;5134249;27;19946;-87
2023/04/09 02:33:54;;;;;;;;;;;8.00;99.90;;;;;;5079542;28;19932;-87
2023/04/09 02:36:25;;;;;;;;;;;8.00;99.90;;;;;;5110753;27;20020;-87
2023/04/09 02:38:51;;;;;;;;;;;7.80;99.90;;;;;;5076544;28;19936;-89
2023/04/09 02:41:24;;;;;;;;;;;7.80;99.90;;;;;;5095693;28;19928;-88
2023/04/09 02:43:52;;;;;;;;;;;8.00;99.90;;;;;;5076884;28;19924;-87
2023/04/09 02:46:22;;;;;;;;;;;9.20;99.90;;;;;;5080032;28;19924;-87
2023/04/09 02:48:50;;;;;;;;;;;8.00;99.90;;;;;;5061899;28;20418;-87
2023/04/09 02:51:18;;;;;;;;;;;7.80;99.90;;;;;;5095486;28;20003;-88
2023/04/09 02:53:49;;;;;;;;;;;8.00;99.90;;;;;;5126537;27;20442;-88
2023/04/09 02:56:17;;;;;;;;;;;8.30;99.90;;;;;;5095313;28;19924;-88
2023/04/09 02:58:42;;;;;;;;;;;7.90;99.90;;;;;;5096071;28;19932;-88
2023/04/09 03:01:08;;;;;;;;;;;7.70;99.90;;;;;;5077494;28;19935;-87
2023/04/09 03:03:34;;;;;;;;;;;7.90;99.90;;;;;;5132740;27;19935;-88
2023/04/09 03:05:59;;;;;;;;;;;7.60;99.90;;;;;;5079954;28;19971;-88
2023/04/09 03:08:38;;;;;;;;;;;;;;;;;;;;;
2023/04/09 03:11:06;;;;;;;;;;;6.70;99.90;;;;;;5100812;28;19924;-88
2023/04/09 03:13:34;;;;;;;;;;;7.60;99.90;;;;;;5085329;28;19946;-88
2023/04/09 03:16:02;;;;;;;;;;;7.70;99.90;;;;;;5080347;28;19931;-88
2023/04/09 03:18:35;;;;;;;;;;;7.50;99.90;;;;;;5080702;28;19934;-88
2023/04/09 03:21:05;;;;;;;;;;;7.50;99.90;;;;;;5085402;28;19924;-88
2023/04/09 03:23:34;;;;;;;;;;;7.60;99.90;;;;;;5075022;28;19924;-87
2023/04/09 03:26:00;;;;;;;;;;;7.50;99.90;;;;;;5089357;28;20339;-88
2023/04/09 03:28:29;;;;;;;;;;;8.20;99.90;;;;;;5079397;28;19942;-87
2023/04/09 03:30:57;;;;;;;;;;;7.60;99.90;;;;;;5100721;28;20372;-88
2023/04/09 03:33:30;;;;;;;;;;;7.40;99.90;;;;;;5065153;28;19960;-88
2023/04/09 03:35:58;;;;;;;;;;;7.90;99.90;;;;;;5082178;28;19959;-87
2023/04/09 03:38:24;;;;;;;;;;;7.90;99.90;;;;;;5111439;27;19924;-88
2023/04/09 03:40:50;;;;;;;;;;;7.40;99.90;;;;;;5094603;28;19946;-88
2023/04/09 03:43:18;;;;;;;;;;;7.90;99.90;;;;;;5088032;28;19935;-88
2023/04/09 03:45:51;;;;;;;;;;;7.40;99.90;;;;;;5086644;28;20014;-88
2023/04/09 03:48:19;;;;;;;;;;;7.50;99.90;;;;;;5075212;28;19944;-88
2023/04/09 03:50:52;;;;;;;;;;;7.30;99.90;;;;;;5072938;28;20372;-88
2023/04/09 03:53:18;;;;;;;;;;;7.70;99.90;;;;;;5079235;28;19925;-88
2023/04/09 03:55:46;;;;;;;;;;;8.30;99.90;;;;;;5094480;28;19935;-87
2023/04/09 03:58:12;;;;;;;;;;;7.40;99.90;;;;;;5110569;27;20078;-88
2023/04/09 04:00:43;;;;;;;;;;;7.80;99.90;;;;;;5090193;28;20003;-88
2023/04/09 04:03:13;;;;;;;;;;;7.40;99.90;;;;;;5081023;28;19975;-88
2023/04/09 04:05:41;;;;;;;;;;;7.60;99.90;;;;;;5076752;28;20366;-88
2023/04/09 04:08:11;;;;;;;;;;;8.30;99.90;;;;;;5089678;28;19924;-89
2023/04/09 04:10:37;;;;;;;;;;;6.10;99.90;;;;;;5085660;28;19928;-88
2023/04/09 04:13:07;;;;;;;;;;;7.40;99.90;;;;;;5075448;28;20398;-87
2023/04/09 04:15:38;;;;;;;;;;;7.40;99.90;;;;;;5070542;28;20268;-88
2023/04/09 04:18:08;;;;;;;;;;;7.50;99.90;;;;;;5103288;27;19931;-87
2023/04/09 04:20:34;;;;;;;;;;;7.70;99.90;;;;;;5053880;28;19969;-88
2023/04/09 04:23:05;;;;;;;;;;;8.40;99.90;;;;;;5075379;28;19924;-88
2023/04/09 04:25:33;;;;;;;;;;;7.30;99.90;;;;;;5105750;28;19928;-88
2023/04/09 04:28:06;;;;;;;;;;;8.40;99.90;;;;;;5076532;28;20402;-88
2023/04/09 04:30:37;;;;;;;;;;;7.40;99.90;;;;;;5057205;28;19924;-87
2023/04/09 04:33:14;;;;;;;;;;;7.50;99.90;;;;;;5073878;28;19924;-87
2023/04/09 04:35:39;;;;;;;;;;;5.70;99.90;;;;;;5050964;28;19931;-87
2023/04/09 04:38:10;;;;;;;;;;;7.90;99.90;;;;;;5122780;27;19924;-87
2023/04/09 04:40:53;;;;;;;;;;;7.30;99.90;;;;;;5080089;28;19953;-88
2023/04/09 04:43:19;;;;;;;;;;;7.40;99.90;;;;;;5085198;28;19936;-87
2023/04/09 04:45:45;;;;;;;;;;;7.30;99.90;;;;;;5072088;28;19924;-88
2023/04/09 04:48:10;;;;;;;;;;;9.60;99.90;;;;;;5068040;28;19939;-88
2023/04/09 04:50:41;;;;;;;;;;;7.70;99.90;;;;;;5080827;28;20018;-87
2023/04/09 04:53:07;;;;;;;;;;;7.30;99.90;;;;;;5074812;28;19989;-87
2023/04/09 04:55:38;;;;;;;;;;;7.70;99.90;;;;;;5077038;28;19924;-88
2023/04/09 04:58:06;;;;;;;;;;;7.40;99.90;;;;;;5070811;28;20388;-88
2023/04/09 05:00:32;;;;;;;;;;;7.90;99.90;;;;;;5076548;28;19932;-88
2023/04/09 05:03:03;;;;;;;;;;;7.50;99.90;;;;;;5098167;28;20391;-88
2023/04/09 05:05:31;;;;;;;;;;;6.30;99.90;;;;;;5074761;28;19944;-88
2023/04/09 05:08:07;;;;;;;;;;;7.60;99.90;;;;;;5074152;28;19982;-88
2023/04/09 05:10:46;;;;;;;;;;;7.50;99.90;;;;;;5078413;28;20802;-88
2023/04/09 05:13:11;;;;;;;;;;;7.60;99.90;;;;;;5056311;28;20257;-88
2023/04/09 05:15:42;;;;;;;;;;;7.50;99.90;;;;;;5068521;28;19931;-88
2023/04/09 05:18:10;;;;;;;;;;;7.00;99.90;;;;;;5087372;28;19925;-88
2023/04/09 05:20:35;;;;;;;;;;;7.70;99.90;;;;;;5133103;27;20035;-87
2023/04/09 05:23:04;;;;;;;;;;;8.40;99.90;;;;;;5133221;27;20011;-88
2023/04/09 05:25:29;;;;;;;;;;;7.40;99.90;;;;;;5109256;28;19931;-88
2023/04/09 05:27:55;;;;;;;;;;;7.40;99.90;;;;;;5092287;28;19923;-88
2023/04/09 05:30:23;;;;;;;;;;;6.10;99.90;;;;;;5065510;28;20356;-88
2023/04/09 05:32:49;;;;;;;;;;;7.30;99.90;;;;;;5081976;28;19975;-87
2023/04/09 05:35:19;;;;;;;;;;;7.30;99.90;;;;;;5090192;28;19931;-89
2023/04/09 05:37:45;;;;;;;;;;;7.80;99.90;;;;;;5094367;28;19954;-88
2023/04/09 05:40:13;;;;;;;;;;;7.80;99.90;;;;;;5069747;28;19924;-87
2023/04/09 05:42:41;;;;;;;;;;;7.30;99.90;;;;;;5138190;27;20422;-88
2023/04/09 05:45:08;;;;;;;;;;;8.10;99.90;;;;;;5102930;28;20355;-87
2023/04/09 05:47:36;;;;;;;;;;;7.50;99.90;;;;;;5080081;28;19924;-87
2023/04/09 05:50:12;;;;;;;;;;;;;;;;;;;;;
2023/04/09 05:52:38;;;;;;;;;;;7.40;99.90;;;;;;5094263;28;19928;-87
2023/04/09 05:55:13;;;;;;;;;;;7.80;99.90;;;;;;5102226;28;19947;-87
2023/04/09 05:57:44;;;;;;;;;;;5.90;99.90;;;;;;5093776;28;20407;-90
2023/04/09 06:00:22;;;;;;;;;;;;;;;;;;;;;
2023/04/09 06:03:07;;;;;;;;;;;;;;;;;;;;;
2023/04/09 06:05:58;;;;;;;;;;;7.00;99.90;;;;;;5088623;28;19993;-92
2023/04/09 06:08:37;;;;;;;;;;;8.10;99.90;;;;;;5090299;28;19924;-92
2023/04/09 06:11:14;;;;;;;;;;;7.60;99.90;;;;;;5101566;28;19978;-90
2023/04/09 06:13:49;;;;;;;;;;;7.80;99.90;;;;;;5076673;28;19931;-89
2023/04/09 06:16:26;;;;;;;;;;;7.60;99.90;;;;;;5077336;28;19928;-91
2023/04/09 06:18:53;;;;;;;;;;;8.00;99.90;;;;;;5064581;28;19928;-90
2023/04/09 06:21:21;;;;;;;;;;;7.80;99.90;;;;;;5101770;28;19977;-91
2023/04/09 06:23:52;;;;;;;;;;;6.20;99.90;;;;;;5076662;28;20330;-91
2023/04/09 06:26:45;;;;;;;;;;;7.60;99.90;;;;;;5081964;28;20622;-90
2023/04/09 06:29:13;;;;;;;;;;;7.60;99.90;;;;;;5086573;28;20061;-90
2023/04/09 06:32:01;;;;;;;;;;;7.80;99.90;;;;;;5085562;28;20295;-91
2023/04/09 06:34:56;;;;;;;;;;;7.60;99.90;;;;;;5070789;28;19924;-90
2023/04/09 06:37:43;;;;;;;;;;;5.80;99.90;;;;;;5078258;28;20322;-90
2023/04/09 06:40:25;;;;;;;;;;;7.60;99.90;;;;;;5078526;28;20393;-91
2023/04/09 06:43:04;;;;;;;;;;;7.90;99.90;;;;;;5103464;28;19924;-90
2023/04/09 06:45:36;;;;;;;;;;;7.60;99.90;;;;;;5103943;28;19925;-92
2023/04/09 06:48:13;;;;;;;;;;;9.50;99.90;;;;;;5091267;28;20398;-91
2023/04/09 06:50:54;;;;;;;;;;;8.30;99.90;;;;;;5089856;28;19931;-90
2023/04/09 06:53:33;;;;;;;;;;;;;;;;;;;;;
2023/04/09 06:56:01;;;;;;;;;;;7.40;99.90;;;;;;5082463;28;19969;-88
2023/04/09 06:58:27;;;;;;;;;;;7.50;99.90;;;;;;5127635;27;19925;-88
2023/04/09 07:01:05;;;;;;;;;;;6.40;99.90;;;;;;5061456;28;19978;-89
2023/04/09 07:03:33;;;;;;;;;;;7.80;99.90;;;;;;5066071;28;19923;-88
2023/04/09 07:05:59;;;;;;;;;;;8.20;99.90;;;;;;5087947;28;19924;-88
2023/04/09 07:08:30;;;;;;;;;;;7.90;99.90;;;;;;5080869;28;19993;-88
2023/04/09 07:10:55;;;;;;;;;;;7.80;99.90;;;;;;5117512;27;19930;-88
2023/04/09 07:13:21;;;;;;;;;;;8.00;99.90;;;;;;5080653;28;20002;-86
2023/04/09 07:15:47;;;;;;;;;;;7.90;99.90;;;;;;5087891;28;19975;-87
2023/04/09 07:18:12;;;;;;;;;;;7.80;99.90;;;;;;5101758;28;19939;-89
2023/04/09 07:20:38;;;;;;;;;;;8.20;99.90;;;;;;5075565;28;19986;-88
2023/04/09 07:23:04;;;;;;;;;;;8.00;99.90;;;;;;5076364;28;19982;-88
2023/04/09 07:25:29;;;;;;;;;;;7.80;99.90;;;;;;5076647;28;19997;-88
2023/04/09 07:27:55;;;;;;;;;;;7.80;99.90;;;;;;5107665;27;19931;-88
2023/04/09 07:30:24;;;;;;;;;;;8.00;99.90;;;;;;5074536;28;20536;-88
2023/04/09 07:32:50;;;;;;;;;;;7.90;99.90;;;;;;5074956;28;19924;-88
2023/04/09 07:35:17;;;;;;;;;;;8.20;99.90;;;;;;5077524;28;19947;-88
2023/04/09 07:37:45;;;;;;;;;;;8.80;99.90;;;;;;5097677;28;19924;-86
2023/04/09 07:40:13;;;;;;;;;;;8.10;99.90;;;;;;5100768;28;19989;-87
2023/04/09 07:42:39;;;;;;;;;;;8.20;99.90;;;;;;5129912;27;20263;-88
2023/04/09 07:45:07;;;;;;;;;;;8.30;99.90;;;;;;5094889;28;20050;-87
2023/04/09 07:47:33;;;;;;;;;;;8.40;99.90;;;;;;5100798;28;20288;-88
2023/04/09 07:50:01;;;;;;;;;;;8.60;99.90;;;;;;5098083;28;19931;-88
2023/04/09 07:52:26;;;;;;;;;;;8.70;99.90;;;;;;5130169;27;19924;-87
2023/04/09 07:54:52;;;;;;;;;;;8.70;99.90;;;;;;5083327;28;20283;-88
2023/04/09 07:57:18;;;;;;;;;;;8.80;99.90;;;;;;5096421;28;19928;-88
2023/04/09 07:59:43;;;;;;;;;;;8.70;99.90;;;;;;5099674;28;20449;-88
2023/04/09 08:02:09;;;;;;;;;;;8.80;99.90;;;;;;5101784;28;19975;-88
2023/04/09 08:04:35;;;;;;;;;;;8.80;99.90;;;;;;5134282;27;20414;-87
2023/04/09 08:07:00;;;;;;;;;;;8.70;99.90;;;;;;5069330;28;19928;-87
2023/04/09 08:09:26;;;;;;;;;;;8.80;99.90;;;;;;5092044;28;19924;-88
2023/04/09 08:11:52;;;;;;;;;;;8.80;99.90;;;;;;5120648;27;20376;-88
2023/04/09 08:14:17;;;;;;;;;;;8.90;99.90;;;;;;5133609;27;20056;-88
2023/04/09 08:16:44;;;;;;;;;;;9.00;99.90;;;;;;5097056;28;19928;-88
2023/04/09 08:19:10;;;;;;;;;;;9.00;99.90;;;;;;5136113;27;19924;-87
2023/04/09 08:21:42;;;;;;;;;;;9.00;99.90;;;;;;5086554;28;20253;-89
2023/04/09 08:24:11;;;;;;;;;;;9.10;99.90;;;;;;5096631;28;20324;-89
2023/04/09 08:26:37;;;;;;;;;;;9.10;99.90;;;;;;5087956;28;20252;-89
2023/04/09 08:29:03;;;;;;;;;;;9.10;99.90;;;;;;5086864;28;19931;-88
2023/04/09 08:31:28;;;;;;;;;;;9.10;99.90;;;;;;5087637;28;19939;-89
2023/04/09 08:33:54;;;;;;;;;;;9.10;99.90;;;;;;5094869;28;19932;-88
2023/04/09 08:36:20;;;;;;;;;;;9.10;99.90;;;;;;5091650;28;20007;-87
2023/04/09 08:38:46;;;;;;;;;;;9.10;99.90;;;;;;5126746;27;19928;-88
2023/04/09 08:41:18;;;;;;;;;;;9.10;99.90;;;;;;5100503;28;19923;-88
2023/04/09 08:43:45;;;;;;;;;;;9.10;99.90;;;;;;5094057;28;19928;-88
2023/04/09 08:46:11;;;;;;;;;;;9.20;99.90;;;;;;5095662;28;20287;-88
2023/04/09 08:48:41;;;;;;;;;;;9.30;99.90;;;;;;5102472;28;19930;-88
2023/04/09 08:51:06;;;;;;;;;;;9.40;99.90;;;;;;5100566;28;20359;-89
2023/04/09 08:53:32;;;;;;;;;;;9.50;99.90;;;;;;5094978;28;19931;-85
2023/04/09 08:55:58;;;;;;;;;;;9.50;99.90;;;;;;5089861;28;19935;-85
2023/04/09 08:58:24;;;;;;;;;;;9.50;99.90;;;;;;5127479;27;19940;-86
2023/04/09 09:00:50;;;;;;;;;;;9.50;99.90;;;;;;5092804;28;19947;-86
2023/04/09 09:03:16;;;;;;;;;;;9.60;99.90;;;;;;5093535;28;20378;-88
2023/04/09 09:05:43;;;;;;;;;;;9.60;99.90;;;;;;5093435;28;19924;-85
2023/04/09 09:08:09;;;;;;;;;;;11.20;99.90;;;;;;5076713;28;19924;-85
2023/04/09 09:10:39;;;;;;;;;;;9.70;99.90;;;;;;5109350;28;19924;-88
2023/04/09 09:13:18;;;;;;;;;;;9.80;99.90;;;;;;5094888;28;19975;-88
2023/04/09 09:15:46;;;;;;;;;;;9.90;99.90;;;;;;5098125;28;19950;-88
2023/04/09 09:18:12;;;;;;;;;;;10.00;99.90;;;;;;5091686;28;19986;-86
2023/04/09 09:20:38;;;;;;;;;;;10.10;99.90;;;;;;5098549;28;19959;-86
2023/04/09 09:23:03;;;;;;;;;;;10.20;99.90;;;;;;5092186;28;19935;-88
2023/04/09 09:25:31;;;;;;;;;;;10.20;99.90;;;;;;5090021;28;19924;-86
2023/04/09 09:28:05;;;;;;;;;;;10.20;99.90;;;;;;5080061;28;20882;-85
2023/04/09 09:30:31;;;;;;;;;;;10.30;99.90;;;;;;5120253;27;19928;-88
2023/04/09 09:33:04;;;;;;;;;;;10.50;99.90;;;;;;5071212;28;19924;-88
2023/04/09 09:35:30;;;;;;;;;;;10.50;99.90;;;;;;5112965;28;19928;-86
2023/04/09 09:38:05;;;;;;;;;;;10.60;99.90;;;;;;5091142;28;19972;-89
2023/04/09 09:40:31;;;;;;;;;;;10.60;99.90;;;;;;5093289;28;19981;-88
2023/04/09 09:42:57;;;;;;;;;;;10.60;99.90;;;;;;5081266;28;20380;-87
2023/04/09 09:45:23;;;;;;;;;;;10.70;99.90;;;;;;5098013;28;20007;-87
2023/04/09 09:47:54;;;;;;;;;;;12.60;99.90;;;;;;5082843;28;19993;-87
2023/04/09 09:50:25;;;;;;;;;;;10.80;99.90;;;;;;5124036;28;19924;-87
2023/04/09 09:52:57;;;;;;;;;;;10.80;99.90;;;;;;5094487;28;19943;-87
2023/04/09 09:55:28;;;;;;;;;;;10.90;99.90;;;;;;5072999;28;20595;-87
2023/04/09 09:57:55;;;;;;;;;;;10.90;99.90;;;;;;5089741;28;19935;-87
2023/04/09 10:00:24;;;;;;;;;;;10.90;99.90;;;;;;5092551;28;19949;-86
2023/04/09 10:03:10;;;;;;;;;;;10.90;99.90;;;;;;5096838;28;19928;-87
2023/04/09 10:05:48;;;;;;;;;;;10.90;99.90;;;;;;5075207;28;20383;-87
2023/04/09 10:08:17;;;;;;;;;;;11.00;99.90;;;;;;5076900;28;19924;-88
2023/04/09 10:10:43;;;;;;;;;;;11.40;99.90;;;;;;5102957;28;19931;-87
2023/04/09 10:13:14;;;;;;;;;;;11.20;99.90;;;;;;5064254;28;19928;-87
2023/04/09 10:15:47;;;;;;;;;;;11.50;99.90;;;;;;5095179;28;19932;-86
2023/04/09 10:18:23;;;;;;;;;;;11.80;99.90;;;;;;5075230;28;19924;-87
2023/04/09 10:20:57;;;;;;;;;;;11.60;99.90;;;;;;5123998;27;20356;-87
2023/04/09 10:23:30;;;;;;;;;;;11.50;99.90;;;;;;5077470;28;19924;-87
2023/04/09 10:25:55;;;;;;;;;;;11.70;99.90;;;;;;5112998;27;20015;-87
2023/04/09 10:28:24;;;;;;;;;;;11.70;99.90;;;;;;5085441;28;20358;-87
2023/04/09 10:30:52;;;;;;;;;;;11.80;99.90;;;;;;5098060;28;20287;-86
2023/04/09 10:33:25;;;;;;;;;;;12.10;99.90;;;;;;5077700;28;19974;-87
2023/04/09 10:35:53;;;;;;;;;;;12.00;99.90;;;;;;5105977;28;19924;-87
2023/04/09 10:38:40;;;;;;;;;;;11.20;99.90;;;;;;5089774;28;19928;-87
2023/04/09 10:41:13;;;;;;;;;;;12.10;99.90;;;;;;5082186;28;20416;-87
2023/04/09 10:43:39;;;;;;;;;;;12.20;99.90;;;;;;5087726;28;19924;-89
2023/04/09 10:46:25;;;;;;;;;;;12.90;99.90;;;;;;5077131;28;19943;-88
2023/04/09 10:49:37;;;;;;;;;;;12.10;99.90;;;;;;5123427;27;20355;-88
2023/04/09 10:52:06;;;;;;;;;;;14.00;99.90;;;;;;5011052;28;20005;-87
2023/04/09 10:54:37;;;;;;;;;;;12.30;99.90;;;;;;5007202;28;20012;-88
2023/04/09 10:57:12;;;;;;;;;;;12.50;99.90;;;;;;5056031;28;19924;-89
2023/04/09 10:59:42;;;;;;;;;;;12.70;99.90;;;;;;5081648;28;19927;-87
2023/04/09 11:02:16;;;;;;;;;;;12.60;99.90;;;;;;5081248;28;20013;-87
2023/04/09 11:05:05;;;;;;;;;;;13.00;99.90;;;;;;5078103;28;20489;-86
2023/04/09 11:07:32;;;;;;;;;;;12.90;99.90;;;;;;5126256;27;19924;-86
2023/04/09 11:09:57;;;;;;;;;;;12.90;99.90;;;;;;5084877;28;19931;-87
2023/04/09 11:12:23;;;;;;;;;;;12.60;99.90;;;;;;5083962;28;19925;-85
2023/04/09 11:14:49;;;;;;;;;;;12.70;99.90;;;;;;5099578;28;19924;-86
2023/04/09 11:17:14;;;;;;;;;;;12.70;99.90;;;;;;5099507;28;20394;-87
2023/04/09 11:19:40;;;;;;;;;;;12.90;99.90;;;;;;5098821;28;20371;-88
2023/04/09 11:22:08;;;;;;;;;;;13.10;99.90;;;;;;5078672;28;20051;-87
2023/04/09 11:24:42;;;;;;;;;;;13.30;99.90;;;;;;5056042;28;20494;-87
2023/04/09 11:27:18;;;;;;;;;;;13.40;99.90;;;;;;5120202;27;20031;-92
2023/04/09 11:30:05;;;;;;;;;;;;;;;;;;;;;
2023/04/09 11:32:41;;;;;;;;;;;;;;;;;;;;;
2023/04/09 11:35:12;;;;;;;;;;;13.90;99.90;;;;;;5087224;28;20365;-89
2023/04/09 11:37:38;;;;;;;;;;;13.90;99.90;;;;;;5125409;27;19927;-87
2023/04/09 11:40:04;;;;;;;;;;;13.90;99.90;;;;;;5111160;28;20339;-86
2023/04/09 11:42:30;;;;;;;;;;;14.30;99.90;;;;;;5102035;28;19959;-87
2023/04/09 11:44:56;;;;;;;;;;;14.00;99.90;;;;;;5079365;28;20025;-85
2023/04/09 11:47:22;;;;;;;;;;;14.10;99.90;;;;;;5101719;28;20379;-85
2023/04/09 11:49:47;;;;;;;;;;;14.10;99.90;;;;;;5105516;28;20286;-86
2023/04/09 11:52:15;;;;;;;;;;;14.00;99.90;;;;;;5083073;28;19927;-86
2023/04/09 11:54:41;;;;;;;;;;;14.00;99.90;;;;;;5101322;28;20341;-87
2023/04/09 11:57:06;;;;;;;;;;;14.00;99.90;;;;;;5096118;28;19977;-87
2023/04/09 11:59:32;;;;;;;;;;;14.00;99.90;;;;;;5092553;28;19951;-88
2023/04/09 12:01:58;;;;;;;;;;;13.80;99.90;;;;;;5105200;28;19935;-86
2023/04/09 12:04:24;;;;;;;;;;;13.90;99.90;;;;;;5106208;28;20012;-86
2023/04/09 12:06:49;;;;;;;;;;;14.00;99.90;;;;;;5094743;28;20025;-86
2023/04/09 12:09:15;;;;;;;;;;;14.10;99.90;;;;;;5092819;28;19982;-84
2023/04/09 12:11:44;;;;;;;;;;;14.00;99.90;;;;;;5129876;27;19935;-84
2023/04/09 12:14:15;;;;;;;;;;;14.10;99.90;;;;;;5122336;27;19932;-85
2023/04/09 12:16:42;;;;;;;;;;;14.20;99.90;;;;;;5109914;28;19931;-85
2023/04/09 12:19:09;;;;;;;;;;;14.20;99.90;;;;;;5123872;27;19974;-86
2023/04/09 12:21:54;;;;;;;;;;;14.20;99.90;;;;;;5098891;28;19930;-85
2023/04/09 12:24:22;;;;;;;;;;;14.20;99.90;;;;;;5092111;28;20149;-85
2023/04/09 12:26:47;;;;;;;;;;;14.20;99.90;;;;;;5090554;28;20446;-85
2023/04/09 12:29:13;;;;;;;;;;;14.10;99.90;;;;;;5096564;28;19928;-86
2023/04/09 12:31:39;;;;;;;;;;;14.10;99.90;;;;;;5098207;28;19979;-86
2023/04/09 12:34:05;;;;;;;;;;;14.30;99.90;;;;;;5103207;28;20490;-86
2023/04/09 12:36:30;;;;;;;;;;;14.50;99.90;;;;;;5080285;28;20431;-85
2023/04/09 12:38:56;;;;;;;;;;;14.70;99.90;;;;;;5095142;28;19939;-86
2023/04/09 12:41:21;;;;;;;;;;;14.70;99.90;;;;;;5099741;28;20290;-86
2023/04/09 12:43:48;;;;;;;;;;;14.90;99.90;;;;;;5097437;28;20298;-87
2023/04/09 12:46:13;;;;;;;;;;;14.80;99.90;;;;;;5101982;28;20264;-86
2023/04/09 12:48:39;;;;;;;;;;;14.90;99.90;;;;;;5084381;28;19931;-86
2023/04/09 12:51:05;;;;;;;;;;;14.90;99.90;;;;;;5079845;28;19924;-87
2023/04/09 12:53:31;;;;;;;;;;;15.00;99.90;;;;;;5098220;28;19988;-87
2023/04/09 12:55:56;;;;;;;;;;;15.00;99.90;;;;;;5078422;28;19928;-87
2023/04/09 12:58:22;;;;;;;;;;;15.20;99.90;;;;;;5097095;28;19924;-86
2023/04/09 13:00:48;;;;;;;;;;;15.30;99.90;;;;;;5091906;28;20015;-87
2023/04/09 13:03:17;;;;;;;;;;;15.40;99.90;;;;;;5088345;28;19924;-87
2023/04/09 13:05:42;;;;;;;;;;;15.50;99.90;;;;;;5101460;28;20386;-87
2023/04/09 13:08:08;;;;;;;;;;;15.80;99.90;;;;;;5068423;28;20007;-87
2023/04/09 13:10:36;;;;;;;;;;;16.00;99.90;;;;;;5117263;28;19928;-87
2023/04/09 13:13:04;;;;;;;;;;;16.10;99.90;;;;;;5099891;28;19934;-88
2023/04/09 13:15:30;;;;;;;;;;;16.10;99.90;;;;;;5061882;28;19954;-87
2023/04/09 13:17:58;;;;;;;;;;;16.20;99.90;;;;;;5119748;27;19944;-89
2023/04/09 13:20:26;;;;;;;;;;;16.40;99.90;;;;;;5120925;27;19932;-87
2023/04/09 13:22:52;;;;;;;;;;;16.60;99.90;;;;;;5074272;28;20053;-87
2023/04/09 13:25:20;;;;;;;;;;;16.50;99.90;;;;;;5088588;28;20573;-88
2023/04/09 13:27:48;;;;;;;;;;;16.40;99.90;;;;;;5119684;27;19932;-87
2023/04/09 13:30:16;;;;;;;;;;;16.20;99.90;;;;;;5088767;28;20265;-87
2023/04/09 13:32:42;;;;;;;;;;;16.10;99.90;;;;;;5107085;28;19923;-86
2023/04/09 13:35:09;;;;;;;;;;;16.00;99.90;;;;;;5096260;28;19927;-86
2023/04/09 13:37:34;;;;;;;;;;;15.80;99.90;;;;;;5093154;28;19978;-87
2023/04/09 13:40:00;;;;;;;;;;;15.60;99.90;;;;;;5101932;28;19928;-85
2023/04/09 13:42:28;;;;;;;;;;;15.80;99.90;;;;;;5066921;28;19936;-88
2023/04/09 13:45:01;;;;;;;;;;;15.50;99.90;;;;;;5094682;28;19924;-86
2023/04/09 13:47:27;;;;;;;;;;;17.20;99.90;;;;;;5122973;27;19991;-87
2023/04/09 13:49:55;;;;;;;;;;;13.40;99.90;;;;;;5078646;28;19925;-90
2023/04/09 13:52:24;;;;;;;;;;;15.00;99.90;;;;;;5074177;28;19923;-90
2023/04/09 13:54:52;;;;;;;;;;;15.10;99.90;;;;;;5090772;28;19942;-88
2023/04/09 13:57:21;;;;;;;;;;;16.40;99.90;;;;;;5090441;28;19931;-87
2023/04/09 13:59:46;;;;;;;;;;;15.40;99.90;;;;;;5119968;27;20410;-87
2023/04/09 14:02:12;;;;;;;;;;;15.50;99.90;;;;;;5087216;28;19924;-87
2023/04/09 14:04:38;;;;;;;;;;;15.30;99.90;;;;;;5071809;28;19928;-88
2023/04/09 14:07:03;;;;;;;;;;;15.10;99.90;;;;;;5088525;28;19942;-88
2023/04/09 14:09:30;;;;;;;;;;;15.10;99.90;;;;;;5064504;28;20420;-89
2023/04/09 14:11:56;;;;;;;;;;;15.30;99.90;;;;;;5071904;28;19976;-88
2023/04/09 14:14:24;;;;;;;;;;;15.70;98.40;;;;;;5067116;28;20043;-87
2023/04/09 14:16:49;;;;;;;;;;;15.10;99.10;;;;;;5090557;28;20406;-87
2023/04/09 14:19:15;;;;;;;;;;;15.20;98.20;;;;;;5089691;28;19932;-88
2023/04/09 14:21:40;;;;;;;;;;;15.10;98.30;;;;;;5072765;28;19976;-88
2023/04/09 14:24:06;;;;;;;;;;;15.00;97.80;;;;;;5088734;28;19925;-87
2023/04/09 14:26:32;;;;;;;;;;;15.00;99.90;;;;;;5078739;28;19924;-87
2023/04/09 14:28:57;;;;;;;;;;;15.20;99.00;;;;;;5111784;27;19928;-87
2023/04/09 14:31:23;;;;;;;;;;;15.30;98.60;;;;;;5078474;28;19932;-87
2023/04/09 14:33:49;;;;;;;;;;;15.50;99.90;;;;;;5097646;28;19935;-87
2023/04/09 14:36:15;;;;;;;;;;;15.60;99.20;;;;;;5086747;28;20389;-86
2023/04/09 14:38:40;;;;;;;;;;;15.70;99.10;;;;;;5083966;28;20085;-87
2023/04/09 14:41:06;;;;;;;;;;;15.60;96.90;;;;;;5096349;28;20272;-89
2023/04/09 14:43:34;;;;;;;;;;;15.60;98.30;;;;;;5122696;27;19963;-89
2023/04/09 14:46:00;;;;;;;;;;;15.70;98.30;;;;;;5111010;28;20287;-87
2023/04/09 14:48:53;;;;;;;;;;;17.80;96.70;;;;;;5127455;27;19928;-95
2023/04/09 14:51:21;;;;;;;;;;;15.30;99.00;;;;;;5074072;28;20270;-91